sensor_id;sensor_type;location;lat;lon;timestamp;pressure;altitude;pressure_sealevel;temperature;humidity
12991;BME280;6560;57.692;11.958;2023-04-26T00:00:51;100078.66;;;18.33;100.00
12991;BME280;6560;57.692;11.958;2023-04-26T00:03:17;100101.69;;;18.31;100.00
12991;BME280;6560;57.692;11.958;2023-04-26T00:05:44;100101.31;;;19.00;100.00
12991;BME280;6560;57.692;11.958;2023-04-26T00:08:10;99830.97;;;17.38;100.00
12991;BME280;6560;57.692;11.958;2023-04-26T00:10:35;100092.81;;;18.85;100.00
12991;BME280;6560;57.692;11.958;2023-04-26T00:13:01;100102.03;;;18.94;98.86
12991;BME280;6560;57.692;11.958;2023-04-26T00:15:26;100069.13;;;19.25;96.61
12991;BME280;6560;57.692;11.958;2023-04-26T00:17:52;100102.22;;;19.29;96.50
12991;BME280;6560;57.692;11.958;2023-04-26T00:20:17;100100.22;;;19.23;96.30
12991;BME280;6560;57.692;11.958;2023-04-26T00:22:43;99941.63;;;18.91;95.29
12991;BME280;6560;57.692;11.958;2023-04-26T00:25:09;100097.53;;;19.83;92.96
12991;BME280;6560;57.692;11.958;2023-04-26T00:27:35;100074.22;;;19.77;94.15
12991;BME280;6560;57.692;11.958;2023-04-26T00:30:02;100122.97;;;19.99;91.74
12991;BME280;6560;57.692;11.958;2023-04-26T00:32:27;100090.00;;;20.00;90.43
12991;BME280;6560;57.692;11.958;2023-04-26T00:34:54;100102.50;;;19.39;90.95
12991;BME280;6560;57.692;11.958;2023-04-26T00:37:20;100078.66;;;19.17;92.15
12991;BME280;6560;57.692;11.958;2023-04-26T00:39:46;100094.69;;;19.16;92.86
12991;BME280;6560;57.692;11.958;2023-04-26T00:42:11;100091.53;;;19.59;91.00
12991;BME280;6560;57.692;11.958;2023-04-26T00:44:37;100042.03;;;19.13;87.86
12991;BME280;6560;57.692;11.958;2023-04-26T00:47:04;99940.81;;;18.07;90.71
12991;BME280;6560;57.692;11.958;2023-04-26T00:49:30;100126.34;;;18.75;91.02
12991;BME280;6560;57.692;11.958;2023-04-26T00:51:56;99965.59;;;18.31;90.31
12991;BME280;6560;57.692;11.958;2023-04-26T00:54:22;100102.94;;;19.25;88.47
12991;BME280;6560;57.692;11.958;2023-04-26T00:56:48;100111.22;;;18.76;87.93
12991;BME280;6560;57.692;11.958;2023-04-26T00:59:16;99970.25;;;18.10;88.86
12991;BME280;6560;57.692;11.958;2023-04-26T01:01:42;99900.13;;;18.14;86.54
12991;BME280;6560;57.692;11.958;2023-04-26T01:04:07;100108.97;;;19.46;89.01
12991;BME280;6560;57.692;11.958;2023-04-26T01:06:34;100110.78;;;19.47;89.88
12991;BME280;6560;57.692;11.958;2023-04-26T01:09:02;100096.06;;;19.33;88.30
12991;BME280;6560;57.692;11.958;2023-04-26T01:11:36;99972.47;;;18.23;90.51
12991;BME280;6560;57.692;11.958;2023-04-26T01:14:03;100112.84;;;18.99;92.70
12991;BME280;6560;57.692;11.958;2023-04-26T01:16:29;100119.94;;;18.97;92.85
12991;BME280;6560;57.692;11.958;2023-04-26T01:18:55;100110.50;;;18.81;90.83
12991;BME280;6560;57.692;11.958;2023-04-26T01:21:22;100115.00;;;18.55;91.22
12991;BME280;6560;57.692;11.958;2023-04-26T01:23:49;100121.81;;;18.47;88.66
12991;BME280;6560;57.692;11.958;2023-04-26T01:26:14;100116.34;;;18.17;87.78
12991;BME280;6560;57.692;11.958;2023-04-26T01:28:40;100120.34;;;18.55;85.94
12991;BME280;6560;57.692;11.958;2023-04-26T01:31:06;100094.03;;;18.67;84.76
12991;BME280;6560;57.692;11.958;2023-04-26T01:33:32;99986.34;;;18.40;85.45
12991;BME280;6560;57.692;11.958;2023-04-26T01:35:57;100122.09;;;20.00;82.48
12991;BME280;6560;57.692;11.958;2023-04-26T01:38:23;100058.91;;;19.72;79.69
12991;BME280;6560;57.692;11.958;2023-04-26T01:40:49;99919.38;;;18.32;78.69
12991;BME280;6560;57.692;11.958;2023-04-26T01:43:14;99925.06;;;17.88;82.56
12991;BME280;6560;57.692;11.958;2023-04-26T01:45:45;100130.34;;;19.18;85.20
12991;BME280;6560;57.692;11.958;2023-04-26T01:48:12;100119.75;;;20.12;84.38
12991;BME280;6560;57.692;11.958;2023-04-26T01:50:37;100124.88;;;20.36;82.33
12991;BME280;6560;57.692;11.958;2023-04-26T01:53:03;100121.03;;;20.59;82.15
12991;BME280;6560;57.692;11.958;2023-04-26T01:55:28;100120.94;;;20.92;81.39
12991;BME280;6560;57.692;11.958;2023-04-26T01:57:54;100023.19;;;19.70;80.08
12991;BME280;6560;57.692;11.958;2023-04-26T02:00:19;100007.81;;;18.71;84.47
12991;BME280;6560;57.692;11.958;2023-04-26T02:02:45;100024.94;;;18.23;87.75
12991;BME280;6560;57.692;11.958;2023-04-26T02:05:10;99988.22;;;18.16;91.15
12991;BME280;6560;57.692;11.958;2023-04-26T02:07:36;99990.56;;;18.33;91.85
12991;BME280;6560;57.692;11.958;2023-04-26T02:10:02;100144.25;;;19.06;92.58
12991;BME280;6560;57.692;11.958;2023-04-26T02:12:28;100147.88;;;19.08;92.52
12991;BME280;6560;57.692;11.958;2023-04-26T02:14:53;100138.97;;;19.36;93.09
12991;BME280;6560;57.692;11.958;2023-04-26T02:17:19;100002.09;;;18.06;92.74
12991;BME280;6560;57.692;11.958;2023-04-26T02:19:45;100011.97;;;18.35;94.84
12991;BME280;6560;57.692;11.958;2023-04-26T02:22:11;100036.53;;;18.52;94.10
12991;BME280;6560;57.692;11.958;2023-04-26T02:24:37;100120.31;;;19.09;92.09
12991;BME280;6560;57.692;11.958;2023-04-26T02:27:03;100126.69;;;19.14;92.68
12991;BME280;6560;57.692;11.958;2023-04-26T02:29:29;100146.38;;;19.16;95.08
12991;BME280;6560;57.692;11.958;2023-04-26T02:31:57;100121.59;;;18.66;93.23
12991;BME280;6560;57.692;11.958;2023-04-26T02:34:22;100124.84;;;18.83;95.65
12991;BME280;6560;57.692;11.958;2023-04-26T02:36:49;100008.00;;;18.78;94.43
12991;BME280;6560;57.692;11.958;2023-04-26T02:39:14;99968.53;;;18.67;93.30
12991;BME280;6560;57.692;11.958;2023-04-26T02:41:41;100127.94;;;19.54;92.25
12991;BME280;6560;57.692;11.958;2023-04-26T02:44:06;100036.09;;;19.23;93.21
12991;BME280;6560;57.692;11.958;2023-04-26T02:46:32;100124.19;;;19.78;89.45
12991;BME280;6560;57.692;11.958;2023-04-26T02:48:58;100122.81;;;19.93;90.89
12991;BME280;6560;57.692;11.958;2023-04-26T02:51:23;100115.72;;;19.63;89.98
12991;BME280;6560;57.692;11.958;2023-04-26T02:53:49;100133.91;;;19.76;91.02
12991;BME280;6560;57.692;11.958;2023-04-26T02:56:15;100118.00;;;20.12;91.19
12991;BME280;6560;57.692;11.958;2023-04-26T02:58:40;99994.97;;;19.18;90.77
12991;BME280;6560;57.692;11.958;2023-04-26T03:01:06;100123.94;;;20.01;92.36
12991;BME280;6560;57.692;11.958;2023-04-26T03:03:32;100128.66;;;20.11;91.75
12991;BME280;6560;57.692;11.958;2023-04-26T03:05:58;100111.47;;;20.03;92.08
12991;BME280;6560;57.692;11.958;2023-04-26T03:08:24;100058.66;;;19.33;94.13
12991;BME280;6560;57.692;11.958;2023-04-26T03:10:49;100122.75;;;19.60;94.73
12991;BME280;6560;57.692;11.958;2023-04-26T03:13:15;100056.69;;;18.97;90.40
12991;BME280;6560;57.692;11.958;2023-04-26T03:15:46;100085.16;;;18.95;92.13
12991;BME280;6560;57.692;11.958;2023-04-26T03:18:12;100124.06;;;19.45;95.15
12991;BME280;6560;57.692;11.958;2023-04-26T03:20:37;100117.72;;;18.84;94.65
12991;BME280;6560;57.692;11.958;2023-04-26T03:23:03;100094.69;;;19.17;95.76
12991;BME280;6560;57.692;11.958;2023-04-26T03:25:28;100103.06;;;18.99;92.81
12991;BME280;6560;57.692;11.958;2023-04-26T03:27:54;100049.69;;;18.73;96.20
12991;BME280;6560;57.692;11.958;2023-04-26T03:30:20;100106.41;;;19.21;95.25
12991;BME280;6560;57.692;11.958;2023-04-26T03:32:46;100102.91;;;19.83;91.20
12991;BME280;6560;57.692;11.958;2023-04-26T03:35:11;100079.31;;;19.68;89.51
12991;BME280;6560;57.692;11.958;2023-04-26T03:37:37;99975.53;;;19.24;89.68
12991;BME280;6560;57.692;11.958;2023-04-26T03:40:06;99990.19;;;18.77;89.66
12991;BME280;6560;57.692;11.958;2023-04-26T03:42:33;100070.63;;;19.16;90.97
12991;BME280;6560;57.692;11.958;2023-04-26T03:44:58;100110.53;;;19.09;90.97
12991;BME280;6560;57.692;11.958;2023-04-26T03:47:23;100114.97;;;19.09;92.23
12991;BME280;6560;57.692;11.958;2023-04-26T03:49:49;100110.91;;;19.22;91.83
12991;BME280;6560;57.692;11.958;2023-04-26T03:52:15;100113.38;;;19.16;91.00
12991;BME280;6560;57.692;11.958;2023-04-26T03:54:41;100115.16;;;19.17;91.32
12991;BME280;6560;57.692;11.958;2023-04-26T03:57:06;100073.41;;;18.90;90.51
12991;BME280;6560;57.692;11.958;2023-04-26T03:59:32;100112.28;;;19.09;90.75
12991;BME280;6560;57.692;11.958;2023-04-26T04:01:57;100075.59;;;18.75;91.53
12991;BME280;6560;57.692;11.958;2023-04-26T04:04:23;100123.06;;;19.12;91.19
12991;BME280;6560;57.692;11.958;2023-04-26T04:06:49;100125.19;;;19.24;90.95
12991;BME280;6560;57.692;11.958;2023-04-26T04:09:16;100122.25;;;19.15;90.31
12991;BME280;6560;57.692;11.958;2023-04-26T04:11:41;100095.25;;;19.05;90.44
12991;BME280;6560;57.692;11.958;2023-04-26T04:14:07;100111.81;;;19.22;90.23
12991;BME280;6560;57.692;11.958;2023-04-26T04:16:32;100130.00;;;19.64;88.36
12991;BME280;6560;57.692;11.958;2023-04-26T04:18:58;100090.97;;;19.40;88.41
12991;BME280;6560;57.692;11.958;2023-04-26T04:21:23;100110.59;;;19.41;88.96
12991;BME280;6560;57.692;11.958;2023-04-26T04:23:49;100104.16;;;19.34;89.60
12991;BME280;6560;57.692;11.958;2023-04-26T04:26:14;100120.88;;;19.57;89.29
12991;BME280;6560;57.692;11.958;2023-04-26T04:28:40;100085.13;;;19.54;88.56
12991;BME280;6560;57.692;11.958;2023-04-26T04:31:06;100055.44;;;19.76;86.59
12991;BME280;6560;57.692;11.958;2023-04-26T04:33:34;100112.59;;;20.11;86.96
12991;BME280;6560;57.692;11.958;2023-04-26T04:36:00;100108.09;;;20.08;86.26
12991;BME280;6560;57.692;11.958;2023-04-26T04:38:25;100028.03;;;19.52;86.14
12991;BME280;6560;57.692;11.958;2023-04-26T04:40:51;100140.31;;;20.13;86.51
12991;BME280;6560;57.692;11.958;2023-04-26T04:43:17;100031.13;;;19.37;85.86
12991;BME280;6560;57.692;11.958;2023-04-26T04:45:43;100125.28;;;20.18;84.76
12991;BME280;6560;57.692;11.958;2023-04-26T04:48:10;100096.88;;;19.30;86.38
12991;BME280;6560;57.692;11.958;2023-04-26T04:50:37;100056.09;;;19.36;87.01
12991;BME280;6560;57.692;11.958;2023-04-26T04:53:03;100062.19;;;19.32;87.06
12991;BME280;6560;57.692;11.958;2023-04-26T04:55:30;100100.09;;;19.47;87.10
12991;BME280;6560;57.692;11.958;2023-04-26T04:57:56;100104.22;;;19.66;86.73
12991;BME280;6560;57.692;11.958;2023-04-26T05:00:21;100069.88;;;19.82;87.09
12991;BME280;6560;57.692;11.958;2023-04-26T05:02:47;100046.72;;;19.81;84.96
12991;BME280;6560;57.692;11.958;2023-04-26T05:05:12;100099.97;;;20.05;86.07
12991;BME280;6560;57.692;11.958;2023-04-26T05:07:38;100118.53;;;20.32;86.38
12991;BME280;6560;57.692;11.958;2023-04-26T05:10:04;100103.66;;;20.43;86.06
12991;BME280;6560;57.692;11.958;2023-04-26T05:12:29;100076.94;;;20.45;86.51
12991;BME280;6560;57.692;11.958;2023-04-26T05:14:55;100119.22;;;20.95;85.81
12991;BME280;6560;57.692;11.958;2023-04-26T05:17:20;100102.69;;;21.15;86.65
12991;BME280;6560;57.692;11.958;2023-04-26T05:19:46;100021.84;;;21.35;83.73
12991;BME280;6560;57.692;11.958;2023-04-26T05:22:11;100079.66;;;23.86;80.35
12991;BME280;6560;57.692;11.958;2023-04-26T05:24:45;100102.59;;;25.52;76.12
12991;BME280;6560;57.692;11.958;2023-04-26T05:27:12;100092.09;;;26.37;66.39
12991;BME280;6560;57.692;11.958;2023-04-26T05:29:37;100106.53;;;24.68;62.98
12991;BME280;6560;57.692;11.958;2023-04-26T05:32:03;100137.38;;;25.03;69.25
12991;BME280;6560;57.692;11.958;2023-04-26T05:34:29;100109.03;;;23.03;66.80
12991;BME280;6560;57.692;11.958;2023-04-26T05:36:54;100050.50;;;19.58;74.35
12991;BME280;6560;57.692;11.958;2023-04-26T05:39:21;100133.91;;;20.74;83.83
12991;BME280;6560;57.692;11.958;2023-04-26T05:41:46;100170.66;;;20.45;86.35
12991;BME280;6560;57.692;11.958;2023-04-26T05:44:12;100141.88;;;19.45;86.09
12991;BME280;6560;57.692;11.958;2023-04-26T05:46:39;100151.06;;;19.25;86.07
12991;BME280;6560;57.692;11.958;2023-04-26T05:49:05;100180.72;;;19.32;83.69
12991;BME280;6560;57.692;11.958;2023-04-26T05:51:30;100172.94;;;19.40;81.96
12991;BME280;6560;57.692;11.958;2023-04-26T05:53:56;100132.69;;;19.35;85.48
12991;BME280;6560;57.692;11.958;2023-04-26T05:56:22;100019.09;;;19.51;83.39
12991;BME280;6560;57.692;11.958;2023-04-26T05:58:48;100175.69;;;20.33;81.30
12991;BME280;6560;57.692;11.958;2023-04-26T06:01:22;100061.19;;;20.24;82.06
12991;BME280;6560;57.692;11.958;2023-04-26T06:03:48;100142.72;;;21.07;82.60
12991;BME280;6560;57.692;11.958;2023-04-26T06:06:14;100175.97;;;21.51;77.92
12991;BME280;6560;57.692;11.958;2023-04-26T06:08:41;100131.00;;;21.02;76.66
12991;BME280;6560;57.692;11.958;2023-04-26T06:11:07;100136.03;;;21.66;79.71
12991;BME280;6560;57.692;11.958;2023-04-26T06:13:32;100151.53;;;23.93;80.77
12991;BME280;6560;57.692;11.958;2023-04-26T06:15:58;100076.53;;;24.28;75.03
12991;BME280;6560;57.692;11.958;2023-04-26T06:18:25;100157.84;;;27.47;81.28
12991;BME280;6560;57.692;11.958;2023-04-26T06:20:51;100161.00;;;28.60;68.64
12991;BME280;6560;57.692;11.958;2023-04-26T06:23:18;100113.41;;;28.07;76.02
12991;BME280;6560;57.692;11.958;2023-04-26T06:25:43;100146.81;;;29.32;65.78
12991;BME280;6560;57.692;11.958;2023-04-26T06:28:12;100150.88;;;31.00;64.53
12991;BME280;6560;57.692;11.958;2023-04-26T06:30:38;100072.38;;;30.76;57.48
12991;BME280;6560;57.692;11.958;2023-04-26T06:33:04;100140.53;;;32.13;68.85
12991;BME280;6560;57.692;11.958;2023-04-26T06:35:29;100157.00;;;31.16;66.47
12991;BME280;6560;57.692;11.958;2023-04-26T06:37:55;100106.88;;;28.38;66.29
12991;BME280;6560;57.692;11.958;2023-04-26T06:40:27;100163.31;;;27.27;59.80
12991;BME280;6560;57.692;11.958;2023-04-26T06:43:01;100171.41;;;26.49;62.98
12991;BME280;6560;57.692;11.958;2023-04-26T06:45:26;100172.06;;;25.83;53.96
12991;BME280;6560;57.692;11.958;2023-04-26T06:47:52;100151.38;;;25.88;53.73
12991;BME280;6560;57.692;11.958;2023-04-26T06:50:18;100179.47;;;26.28;54.90
12991;BME280;6560;57.692;11.958;2023-04-26T06:52:43;100120.94;;;27.08;53.25
12991;BME280;6560;57.692;11.958;2023-04-26T06:55:09;100120.03;;;26.98;48.04
12991;BME280;6560;57.692;11.958;2023-04-26T06:57:35;100167.75;;;26.25;49.15
12991;BME280;6560;57.692;11.958;2023-04-26T07:00:01;100076.72;;;26.22;47.26
12991;BME280;6560;57.692;11.958;2023-04-26T07:02:28;100189.41;;;26.40;44.15
12991;BME280;6560;57.692;11.958;2023-04-26T07:04:53;100174.16;;;26.93;45.09
12991;BME280;6560;57.692;11.958;2023-04-26T07:07:19;100178.66;;;27.26;41.33
12991;BME280;6560;57.692;11.958;2023-04-26T07:09:45;100156.97;;;27.46;45.01
12991;BME280;6560;57.692;11.958;2023-04-26T07:12:11;100136.06;;;27.85;40.37
12991;BME280;6560;57.692;11.958;2023-04-26T07:14:37;100169.94;;;28.74;40.20
12991;BME280;6560;57.692;11.958;2023-04-26T07:17:08;100152.75;;;28.70;41.48
12991;BME280;6560;57.692;11.958;2023-04-26T07:19:33;100158.69;;;27.77;37.79
12991;BME280;6560;57.692;11.958;2023-04-26T07:21:59;100157.69;;;25.95;37.45
12991;BME280;6560;57.692;11.958;2023-04-26T07:24:25;100094.72;;;26.20;40.05
12991;BME280;6560;57.692;11.958;2023-04-26T07:26:51;100106.16;;;25.45;37.72
12991;BME280;6560;57.692;11.958;2023-04-26T07:29:16;100140.63;;;25.97;40.24
12991;BME280;6560;57.692;11.958;2023-04-26T07:31:43;100197.84;;;25.34;38.52
12991;BME280;6560;57.692;11.958;2023-04-26T07:34:09;100161.25;;;24.59;39.33
12991;BME280;6560;57.692;11.958;2023-04-26T07:36:35;100177.38;;;24.53;40.87
12991;BME280;6560;57.692;11.958;2023-04-26T07:39:00;100206.38;;;24.81;40.41
12991;BME280;6560;57.692;11.958;2023-04-26T07:41:26;100041.56;;;22.86;40.63
12991;BME280;6560;57.692;11.958;2023-04-26T07:43:51;100086.19;;;22.75;41.02
12991;BME280;6560;57.692;11.958;2023-04-26T07:46:17;100189.88;;;22.62;42.39
12991;BME280;6560;57.692;11.958;2023-04-26T07:48:42;100158.97;;;22.87;42.27
12991;BME280;6560;57.692;11.958;2023-04-26T07:51:12;100228.59;;;24.53;42.05
12991;BME280;6560;57.692;11.958;2023-04-26T07:53:38;100218.59;;;25.38;41.63
12991;BME280;6560;57.692;11.958;2023-04-26T07:56:05;100083.06;;;24.54;39.32
12991;BME280;6560;57.692;11.958;2023-04-26T07:58:35;100076.06;;;23.16;38.61
12991;BME280;6560;57.692;11.958;2023-04-26T08:01:01;100174.19;;;24.09;39.45
12991;BME280;6560;57.692;11.958;2023-04-26T08:03:28;100168.94;;;24.22;38.88
12991;BME280;6560;57.692;11.958;2023-04-26T08:05:53;100253.19;;;24.86;39.42
12991;BME280;6560;57.692;11.958;2023-04-26T08:08:21;100171.97;;;24.51;39.80
12991;BME280;6560;57.692;11.958;2023-04-26T08:10:47;100231.69;;;24.14;38.83
12991;BME280;6560;57.692;11.958;2023-04-26T08:13:13;100184.19;;;23.51;38.16
12991;BME280;6560;57.692;11.958;2023-04-26T08:15:38;100180.44;;;24.09;38.27
12991;BME280;6560;57.692;11.958;2023-04-26T08:18:04;100145.03;;;24.56;38.96
12991;BME280;6560;57.692;11.958;2023-04-26T08:20:30;100236.69;;;25.56;36.20
12991;BME280;6560;57.692;11.958;2023-04-26T08:22:57;100107.28;;;23.68;36.43
12991;BME280;6560;57.692;11.958;2023-04-26T08:25:23;100246.38;;;24.39;36.67
12991;BME280;6560;57.692;11.958;2023-04-26T08:27:51;100253.72;;;24.52;35.67
12991;BME280;6560;57.692;11.958;2023-04-26T08:30:17;100218.69;;;24.55;36.32
12991;BME280;6560;57.692;11.958;2023-04-26T08:32:44;100257.75;;;23.52;36.07
12991;BME280;6560;57.692;11.958;2023-04-26T08:35:10;100226.59;;;24.37;37.32
12991;BME280;6560;57.692;11.958;2023-04-26T08:37:35;100242.59;;;25.03;35.21
12991;BME280;6560;57.692;11.958;2023-04-26T08:40:03;100265.16;;;25.14;35.43
12991;BME280;6560;57.692;11.958;2023-04-26T08:42:29;100170.94;;;24.42;36.00
12991;BME280;6560;57.692;11.958;2023-04-26T08:45:03;100259.72;;;25.08;34.56
12991;BME280;6560;57.692;11.958;2023-04-26T08:47:50;100265.28;;;25.28;34.01
12991;BME280;6560;57.692;11.958;2023-04-26T08:50:21;100249.50;;;25.87;34.58
12991;BME280;6560;57.692;11.958;2023-04-26T08:52:51;100227.91;;;24.74;34.73
12991;BME280;6560;57.692;11.958;2023-04-26T08:55:18;100214.06;;;24.42;35.37
12991;BME280;6560;57.692;11.958;2023-04-26T08:57:48;100212.25;;;24.39;35.25
12991;BME280;6560;57.692;11.958;2023-04-26T09:00:15;100217.16;;;24.81;34.70
12991;BME280;6560;57.692;11.958;2023-04-26T09:02:46;100239.16;;;24.33;34.57
12991;BME280;6560;57.692;11.958;2023-04-26T09:05:12;100227.78;;;23.88;35.22
12991;BME280;6560;57.692;11.958;2023-04-26T09:07:43;100210.59;;;23.79;34.99
12991;BME280;6560;57.692;11.958;2023-04-26T09:10:10;100270.84;;;24.57;35.19
12991;BME280;6560;57.692;11.958;2023-04-26T09:12:37;100265.44;;;24.54;34.84
12991;BME280;6560;57.692;11.958;2023-04-26T09:15:04;100298.72;;;24.57;35.93
12991;BME280;6560;57.692;11.958;2023-04-26T09:17:36;100291.72;;;24.02;35.87
12991;BME280;6560;57.692;11.958;2023-04-26T09:22:42;100216.91;;;23.24;37.23
12991;BME280;6560;57.692;11.958;2023-04-26T09:25:08;100282.13;;;23.61;36.36
12991;BME280;6560;57.692;11.958;2023-04-26T09:27:36;100230.22;;;23.71;35.70
12991;BME280;6560;57.692;11.958;2023-04-26T09:32:45;100314.63;;;23.74;36.88
12991;BME280;6560;57.692;11.958;2023-04-26T09:35:38;100321.03;;;23.81;37.15
12991;BME280;6560;57.692;11.958;2023-04-26T09:38:09;100257.91;;;23.08;36.87
12991;BME280;6560;57.692;11.958;2023-04-26T09:40:47;100218.53;;;23.13;36.92
12991;BME280;6560;57.692;11.958;2023-04-26T09:43:18;100235.13;;;23.40;36.17
12991;BME280;6560;57.692;11.958;2023-04-26T09:45:52;100331.50;;;23.64;35.69
12991;BME280;6560;57.692;11.958;2023-04-26T09:48:29;100310.47;;;23.98;36.00
12991;BME280;6560;57.692;11.958;2023-04-26T09:53:41;100080.22;;;21.94;35.77
12991;BME280;6560;57.692;11.958;2023-04-26T09:56:14;100338.25;;;22.90;36.08
12991;BME280;6560;57.692;11.958;2023-04-26T10:01:09;100317.81;;;22.99;36.95
12991;BME280;6560;57.692;11.958;2023-04-26T10:03:38;100322.06;;;23.36;37.60
12991;BME280;6560;57.692;11.958;2023-04-26T10:06:05;100194.78;;;23.42;37.11
12991;BME280;6560;57.692;11.958;2023-04-26T10:08:34;100090.44;;;23.20;36.21
12991;BME280;6560;57.692;11.958;2023-04-26T10:11:02;100343.50;;;23.84;36.26
12991;BME280;6560;57.692;11.958;2023-04-26T10:13:31;100229.31;;;22.65;35.85
12991;BME280;6560;57.692;11.958;2023-04-26T10:15:58;100250.59;;;23.52;35.70
12991;BME280;6560;57.692;11.958;2023-04-26T10:18:30;100286.91;;;23.80;35.92
12991;BME280;6560;57.692;11.958;2023-04-26T10:21:01;100293.63;;;24.12;36.46
12991;BME280;6560;57.692;11.958;2023-04-26T10:23:36;100297.41;;;24.25;35.98
12991;BME280;6560;57.692;11.958;2023-04-26T10:26:01;100257.50;;;23.97;36.46
12991;BME280;6560;57.692;11.958;2023-04-26T10:29:00;100349.59;;;23.73;35.14
12991;BME280;6560;57.692;11.958;2023-04-26T10:31:25;100272.59;;;23.28;35.30
12991;BME280;6560;57.692;11.958;2023-04-26T10:34:20;100316.81;;;22.94;35.27
12991;BME280;6560;57.692;11.958;2023-04-26T10:37:14;100352.44;;;23.83;34.70
12991;BME280;6560;57.692;11.958;2023-04-26T10:39:44;100361.63;;;23.42;36.09
12991;BME280;6560;57.692;11.958;2023-04-26T10:42:29;100338.03;;;22.79;35.22
12991;BME280;6560;57.692;11.958;2023-04-26T10:44:57;100317.88;;;22.59;35.78
12991;BME280;6560;57.692;11.958;2023-04-26T10:47:25;100369.72;;;22.95;35.86
12991;BME280;6560;57.692;11.958;2023-04-26T10:49:51;100300.75;;;21.71;35.97
12991;BME280;6560;57.692;11.958;2023-04-26T10:52:18;100284.34;;;21.97;36.38
12991;BME280;6560;57.692;11.958;2023-04-26T10:54:54;100368.28;;;22.29;36.65
12991;BME280;6560;57.692;11.958;2023-04-26T10:57:21;100288.69;;;21.54;36.77
12991;BME280;6560;57.692;11.958;2023-04-26T11:03:04;100347.00;;;21.61;36.43
12991;BME280;6560;57.692;11.958;2023-04-26T11:05:53;100366.69;;;22.37;36.61
12991;BME280;6560;57.692;11.958;2023-04-26T11:08:23;100294.53;;;22.13;37.20
12991;BME280;6560;57.692;11.958;2023-04-26T11:10:57;100299.91;;;22.11;36.73
12991;BME280;6560;57.692;11.958;2023-04-26T11:13:22;100297.22;;;22.55;36.44
12991;BME280;6560;57.692;11.958;2023-04-26T11:15:59;100326.56;;;22.04;36.33
12991;BME280;6560;57.692;11.958;2023-04-26T11:18:24;100326.22;;;21.90;36.87
12991;BME280;6560;57.692;11.958;2023-04-26T11:20:50;100421.25;;;21.97;36.87
12991;BME280;6560;57.692;11.958;2023-04-26T11:23:17;100320.00;;;21.93;36.63
12991;BME280;6560;57.692;11.958;2023-04-26T11:25:44;100375.94;;;21.74;37.49
12991;BME280;6560;57.692;11.958;2023-04-26T11:28:10;100310.84;;;21.11;36.89
12991;BME280;6560;57.692;11.958;2023-04-26T11:30:36;100286.34;;;21.30;36.57
12991;BME280;6560;57.692;11.958;2023-04-26T11:33:02;100339.84;;;21.62;35.96
12991;BME280;6560;57.692;11.958;2023-04-26T11:35:34;100338.34;;;22.51;36.48
12991;BME280;6560;57.692;11.958;2023-04-26T11:38:02;100295.09;;;21.97;36.06
12991;BME280;6560;57.692;11.958;2023-04-26T11:40:30;100314.25;;;21.76;35.78
12991;BME280;6560;57.692;11.958;2023-04-26T11:43:00;100309.25;;;21.54;35.75
12991;BME280;6560;57.692;11.958;2023-04-26T11:45:26;100393.47;;;22.34;35.78
12991;BME280;6560;57.692;11.958;2023-04-26T11:47:52;100311.97;;;22.75;36.03
12991;BME280;6560;57.692;11.958;2023-04-26T11:50:19;100302.00;;;22.27;35.45
12991;BME280;6560;57.692;11.958;2023-04-26T11:52:48;100386.25;;;23.65;35.46
12991;BME280;6560;57.692;11.958;2023-04-26T11:55:14;100282.31;;;23.73;34.89
12991;BME280;6560;57.692;11.958;2023-04-26T11:57:39;100406.81;;;24.77;34.75
12991;BME280;6560;57.692;11.958;2023-04-26T12:00:13;100317.53;;;23.34;34.27
12991;BME280;6560;57.692;11.958;2023-04-26T12:02:46;100412.13;;;23.57;35.94
12991;BME280;6560;57.692;11.958;2023-04-26T12:05:26;100388.75;;;24.08;35.28
12991;BME280;6560;57.692;11.958;2023-04-26T12:07:54;100354.13;;;23.77;35.83
12991;BME280;6560;57.692;11.958;2023-04-26T12:12:54;100358.28;;;23.07;35.59
12991;BME280;6560;57.692;11.958;2023-04-26T12:15:27;100326.97;;;23.11;35.67
12991;BME280;6560;57.692;11.958;2023-04-26T12:17:54;100383.44;;;23.56;35.82
12991;BME280;6560;57.692;11.958;2023-04-26T12:20:28;100342.22;;;23.12;35.25
12991;BME280;6560;57.692;11.958;2023-04-26T12:25:22;100377.66;;;23.37;35.08
12991;BME280;6560;57.692;11.958;2023-04-26T12:27:48;100375.00;;;22.49;33.78
12991;BME280;6560;57.692;11.958;2023-04-26T12:30:14;100360.03;;;22.19;34.05
12991;BME280;6560;57.692;11.958;2023-04-26T12:32:39;100351.06;;;22.19;34.26
12991;BME280;6560;57.692;11.958;2023-04-26T12:35:06;100419.66;;;22.83;33.79
12991;BME280;6560;57.692;11.958;2023-04-26T12:37:31;100424.84;;;23.65;34.28
12991;BME280;6560;57.692;11.958;2023-04-26T12:39:57;100434.00;;;22.83;34.60
12991;BME280;6560;57.692;11.958;2023-04-26T12:42:22;100382.06;;;22.45;33.94
12991;BME280;6560;57.692;11.958;2023-04-26T12:44:48;100459.56;;;22.66;33.52
12991;BME280;6560;57.692;11.958;2023-04-26T12:47:13;100415.50;;;22.19;33.27
12991;BME280;6560;57.692;11.958;2023-04-26T12:49:39;100397.34;;;22.46;32.96
12991;BME280;6560;57.692;11.958;2023-04-26T12:52:04;100373.19;;;22.07;33.66
12991;BME280;6560;57.692;11.958;2023-04-26T12:54:30;100322.91;;;21.28;34.28
12991;BME280;6560;57.692;11.958;2023-04-26T12:56:56;100439.78;;;22.22;34.37
12991;BME280;6560;57.692;11.958;2023-04-26T12:59:21;100395.03;;;22.22;34.41
12991;BME280;6560;57.692;11.958;2023-04-26T13:01:47;100326.38;;;21.60;34.78
12991;BME280;6560;57.692;11.958;2023-04-26T13:04:13;100304.28;;;21.33;34.89
12991;BME280;6560;57.692;11.958;2023-04-26T13:06:39;100343.78;;;21.76;34.59
12991;BME280;6560;57.692;11.958;2023-04-26T13:09:04;100402.53;;;22.00;34.93